sensor_id;sensor_type;location;lat;lon;timestamp;pressure;altitude;pressure_sealevel;temperature;humidity
6096;BME280;25081;42.698;23.298;2022-08-19T00:00:17;94954.86;;;22.94;54.31
6096;BME280;25081;42.698;23.298;2022-08-19T00:02:27;94961.97;;;22.93;54.53
6096;BME280;25081;42.698;23.298;2022-08-19T00:04:38;94960.36;;;22.92;54.65
6096;BME280;25081;42.698;23.298;2022-08-19T00:06:49;94963.63;;;22.91;54.49
6096;BME280;25081;42.698;23.298;2022-08-19T00:09:00;94961.48;;;22.74;55.46
6096;BME280;25081;42.698;23.298;2022-08-19T00:11:11;94958.92;;;22.53;55.75
6096;BME280;25081;42.698;23.298;2022-08-19T00:13:21;94959.78;;;22.51;56.02
6096;BME280;25081;42.698;23.298;2022-08-19T00:15:32;94968.79;;;22.63;55.49
6096;BME280;25081;42.698;23.298;2022-08-19T00:17:43;94969.13;;;22.89;54.80
6096;BME280;25081;42.698;23.298;2022-08-19T00:19:53;94966.79;;;22.96;54.50
6096;BME280;25081;42.698;23.298;2022-08-19T00:22:04;94973.99;;;23.03;54.21
6096;BME280;25081;42.698;23.298;2022-08-19T00:24:14;94980.91;;;22.98;54.01
6096;BME280;25081;42.698;23.298;2022-08-19T00:26:25;94980.45;;;22.77;54.83
6096;BME280;25081;42.698;23.298;2022-08-19T00:28:36;94983.57;;;22.56;55.77
6096;BME280;25081;42.698;23.298;2022-08-19T00:30:46;94984.73;;;22.53;55.57
6096;BME280;25081;42.698;23.298;2022-08-19T00:32:57;94990.25;;;22.48;56.37
6096;BME280;25081;42.698;23.298;2022-08-19T00:35:09;94976.66;;;22.48;55.67
6096;BME280;25081;42.698;23.298;2022-08-19T00:37:20;94980.05;;;22.56;55.58
6096;BME280;25081;42.698;23.298;2022-08-19T00:39:31;94971.75;;;22.77;55.26
6096;BME280;25081;42.698;23.298;2022-08-19T00:41:42;94972.77;;;22.81;55.07
6096;BME280;25081;42.698;23.298;2022-08-19T00:44:03;94960.70;;;22.60;56.03
6096;BME280;25081;42.698;23.298;2022-08-19T00:46:12;94961.89;;;22.54;56.18
6096;BME280;25081;42.698;23.298;2022-08-19T00:48:23;94967.94;;;22.51;56.07
6096;BME280;25081;42.698;23.298;2022-08-19T00:50:34;94971.03;;;22.44;56.38
6096;BME280;25081;42.698;23.298;2022-08-19T00:52:46;94975.80;;;22.36;56.66
6096;BME280;25081;42.698;23.298;2022-08-19T00:54:55;94967.58;;;22.41;56.42
6096;BME280;25081;42.698;23.298;2022-08-19T00:57:07;94967.08;;;22.39;56.67
6096;BME280;25081;42.698;23.298;2022-08-19T00:59:17;94967.65;;;22.36;56.66
6096;BME280;25081;42.698;23.298;2022-08-19T01:01:28;94963.52;;;22.25;57.24
6096;BME280;25081;42.698;23.298;2022-08-19T01:03:39;94967.72;;;22.17;57.39
6096;BME280;25081;42.698;23.298;2022-08-19T01:05:50;94973.80;;;22.12;57.80
6096;BME280;25081;42.698;23.298;2022-08-19T01:08:00;94970.84;;;22.11;57.64
6096;BME280;25081;42.698;23.298;2022-08-19T01:10:12;94972.75;;;22.10;57.39
6096;BME280;25081;42.698;23.298;2022-08-19T01:12:22;94971.09;;;22.12;57.43
6096;BME280;25081;42.698;23.298;2022-08-19T01:14:32;94977.42;;;22.05;57.80
6096;BME280;25081;42.698;23.298;2022-08-19T01:16:43;94975.08;;;21.98;58.73
6096;BME280;25081;42.698;23.298;2022-08-19T01:18:54;94976.66;;;22.02;58.68
6096;BME280;25081;42.698;23.298;2022-08-19T01:21:05;94969.89;;;21.99;58.21
6096;BME280;25081;42.698;23.298;2022-08-19T01:23:16;94971.13;;;21.90;57.91
6096;BME280;25081;42.698;23.298;2022-08-19T01:25:28;94972.28;;;21.87;57.89
6096;BME280;25081;42.698;23.298;2022-08-19T01:27:41;94970.67;;;21.86;57.89
6096;BME280;25081;42.698;23.298;2022-08-19T01:29:50;94966.31;;;22.04;57.08
6096;BME280;25081;42.698;23.298;2022-08-19T01:32:01;94962.39;;;22.12;56.59
6096;BME280;25081;42.698;23.298;2022-08-19T01:34:12;94964.14;;;22.19;56.59
6096;BME280;25081;42.698;23.298;2022-08-19T01:36:26;94970.28;;;22.11;56.65
6096;BME280;25081;42.698;23.298;2022-08-19T01:38:35;94974.38;;;21.92;57.17
6096;BME280;25081;42.698;23.298;2022-08-19T01:40:45;94967.72;;;22.01;55.93
6096;BME280;25081;42.698;23.298;2022-08-19T01:42:56;94973.25;;;22.12;56.44
6096;BME280;25081;42.698;23.298;2022-08-19T01:45:08;94966.97;;;22.14;56.67
6096;BME280;25081;42.698;23.298;2022-08-19T01:47:19;94973.09;;;22.04;57.51
6096;BME280;25081;42.698;23.298;2022-08-19T01:49:30;94974.58;;;21.96;57.86
6096;BME280;25081;42.698;23.298;2022-08-19T01:51:40;94972.83;;;21.86;58.26
6096;BME280;25081;42.698;23.298;2022-08-19T01:53:51;94980.24;;;21.64;58.89
6096;BME280;25081;42.698;23.298;2022-08-19T01:56:02;94978.95;;;21.59;59.14
6096;BME280;25081;42.698;23.298;2022-08-19T01:58:14;94974.97;;;21.54;59.14
6096;BME280;25081;42.698;23.298;2022-08-19T02:00:24;94976.09;;;21.51;59.47
6096;BME280;25081;42.698;23.298;2022-08-19T02:02:34;94978.55;;;21.50;59.58
6096;BME280;25081;42.698;23.298;2022-08-19T02:04:45;94975.03;;;21.49;59.26
6096;BME280;25081;42.698;23.298;2022-08-19T02:06:56;94978.55;;;21.50;59.41
6096;BME280;25081;42.698;23.298;2022-08-19T02:09:07;94979.75;;;21.60;59.17
6096;BME280;25081;42.698;23.298;2022-08-19T02:11:21;94985.85;;;21.87;58.45
6096;BME280;25081;42.698;23.298;2022-08-19T02:13:32;94984.19;;;21.88;58.20
6096;BME280;25081;42.698;23.298;2022-08-19T02:15:42;94976.63;;;21.69;58.83
6096;BME280;25081;42.698;23.298;2022-08-19T02:17:53;94977.49;;;21.48;59.80
6096;BME280;25081;42.698;23.298;2022-08-19T02:20:05;94974.31;;;21.62;59.20
6096;BME280;25081;42.698;23.298;2022-08-19T02:22:16;94978.17;;;21.75;58.61
6096;BME280;25081;42.698;23.298;2022-08-19T02:24:27;94970.59;;;21.75;58.05
6096;BME280;25081;42.698;23.298;2022-08-19T02:26:38;94973.05;;;21.74;58.04
6096;BME280;25081;42.698;23.298;2022-08-19T02:28:49;94979.28;;;21.74;57.58
6096;BME280;25081;42.698;23.298;2022-08-19T02:30:59;94979.58;;;21.73;57.91
6096;BME280;25081;42.698;23.298;2022-08-19T02:33:10;94976.02;;;21.75;57.67
6096;BME280;25081;42.698;23.298;2022-08-19T02:35:21;94972.36;;;21.65;57.79
6096;BME280;25081;42.698;23.298;2022-08-19T02:37:32;94976.64;;;21.50;58.18
6096;BME280;25081;42.698;23.298;2022-08-19T02:40:01;94980.05;;;21.39;58.44
6096;BME280;25081;42.698;23.298;2022-08-19T02:42:12;94978.64;;;21.45;58.50
6096;BME280;25081;42.698;23.298;2022-08-19T02:44:23;94979.15;;;21.47;58.14
6096;BME280;25081;42.698;23.298;2022-08-19T02:46:33;94985.42;;;21.45;58.39
6096;BME280;25081;42.698;23.298;2022-08-19T02:48:44;94984.52;;;21.33;58.62
6096;BME280;25081;42.698;23.298;2022-08-19T02:50:54;94984.63;;;21.41;58.59
6096;BME280;25081;42.698;23.298;2022-08-19T02:53:05;94987.14;;;21.38;58.83
6096;BME280;25081;42.698;23.298;2022-08-19T02:55:16;94986.03;;;21.18;59.25
6096;BME280;25081;42.698;23.298;2022-08-19T02:57:27;94982.02;;;21.12;59.30
6096;BME280;25081;42.698;23.298;2022-08-19T02:59:38;94988.74;;;21.18;59.53
6096;BME280;25081;42.698;23.298;2022-08-19T03:01:49;94987.73;;;21.11;59.59
6096;BME280;25081;42.698;23.298;2022-08-19T03:04:00;94983.75;;;21.06;59.85
6096;BME280;25081;42.698;23.298;2022-08-19T03:06:11;94987.91;;;20.98;59.72
6096;BME280;25081;42.698;23.298;2022-08-19T03:08:21;94987.98;;;21.12;59.48
6096;BME280;25081;42.698;23.298;2022-08-19T03:10:32;94989.98;;;20.85;59.97
6096;BME280;25081;42.698;23.298;2022-08-19T03:12:42;94987.31;;;21.04;59.57
6096;BME280;25081;42.698;23.298;2022-08-19T03:14:53;94986.67;;;21.09;59.16
6096;BME280;25081;42.698;23.298;2022-08-19T03:17:04;94984.30;;;21.05;59.24
6096;BME280;25081;42.698;23.298;2022-08-19T03:19:15;94980.08;;;20.73;60.28
6096;BME280;25081;42.698;23.298;2022-08-19T03:21:26;94982.95;;;20.81;60.17
6096;BME280;25081;42.698;23.298;2022-08-19T03:23:36;94980.31;;;20.52;61.61
6096;BME280;25081;42.698;23.298;2022-08-19T03:25:47;94988.44;;;20.52;61.96
6096;BME280;25081;42.698;23.298;2022-08-19T03:27:57;94984.55;;;20.61;61.84
6096;BME280;25081;42.698;23.298;2022-08-19T03:30:11;94987.06;;;20.79;61.20
6096;BME280;25081;42.698;23.298;2022-08-19T03:32:22;94988.41;;;20.79;61.33
6096;BME280;25081;42.698;23.298;2022-08-19T03:34:33;94988.50;;;20.71;61.85
6096;BME280;25081;42.698;23.298;2022-08-19T03:36:43;94984.39;;;20.76;61.80
6096;BME280;25081;42.698;23.298;2022-08-19T03:38:54;94987.81;;;20.61;62.16
6096;BME280;25081;42.698;23.298;2022-08-19T03:41:07;94990.70;;;20.43;62.87
6096;BME280;25081;42.698;23.298;2022-08-19T03:43:16;94993.93;;;20.42;62.99
6096;BME280;25081;42.698;23.298;2022-08-19T03:45:27;94993.85;;;20.52;62.73
6096;BME280;25081;42.698;23.298;2022-08-19T03:47:37;94997.95;;;20.74;61.72
6096;BME280;25081;42.698;23.298;2022-08-19T03:49:48;95005.22;;;20.78;61.46
6096;BME280;25081;42.698;23.298;2022-08-19T03:51:58;95006.95;;;20.69;61.83
6096;BME280;25081;42.698;23.298;2022-08-19T03:54:11;95010.80;;;20.63;62.36
6096;BME280;25081;42.698;23.298;2022-08-19T03:56:21;95009.88;;;20.73;62.07
6096;BME280;25081;42.698;23.298;2022-08-19T03:58:32;95008.42;;;20.59;62.56
6096;BME280;25081;42.698;23.298;2022-08-19T04:00:44;95006.98;;;20.67;62.25
6096;BME280;25081;42.698;23.298;2022-08-19T04:02:55;95009.95;;;20.68;62.26
6096;BME280;25081;42.698;23.298;2022-08-19T04:05:07;95018.81;;;20.73;62.10
6096;BME280;25081;42.698;23.298;2022-08-19T04:07:18;95021.70;;;20.82;61.86
6096;BME280;25081;42.698;23.298;2022-08-19T04:09:30;95026.70;;;20.94;61.33
6096;BME280;25081;42.698;23.298;2022-08-19T04:11:42;95023.48;;;20.92;61.27
6096;BME280;25081;42.698;23.298;2022-08-19T04:13:53;95023.09;;;20.79;61.50
6096;BME280;25081;42.698;23.298;2022-08-19T04:16:04;95024.66;;;20.85;61.78
6096;BME280;25081;42.698;23.298;2022-08-19T04:18:14;95024.03;;;20.91;61.40
6096;BME280;25081;42.698;23.298;2022-08-19T04:20:25;95019.97;;;20.91;61.21
6096;BME280;25081;42.698;23.298;2022-08-19T04:22:36;95024.92;;;20.84;61.55
6096;BME280;25081;42.698;23.298;2022-08-19T04:24:46;95027.38;;;20.85;62.17
6096;BME280;25081;42.698;23.298;2022-08-19T04:26:58;95030.69;;;21.01;61.54
6096;BME280;25081;42.698;23.298;2022-08-19T04:29:08;95032.17;;;21.12;61.24
6096;BME280;25081;42.698;23.298;2022-08-19T04:31:20;95033.86;;;21.08;61.14
6096;BME280;25081;42.698;23.298;2022-08-19T04:33:29;95035.42;;;21.14;61.07
6096;BME280;25081;42.698;23.298;2022-08-19T04:35:41;95025.56;;;21.00;61.22
6096;BME280;25081;42.698;23.298;2022-08-19T04:37:51;95034.48;;;20.79;61.57
6096;BME280;25081;42.698;23.298;2022-08-19T04:40:03;95030.34;;;20.86;61.17
6096;BME280;25081;42.698;23.298;2022-08-19T04:42:31;95032.05;;;21.01;60.81
6096;BME280;25081;42.698;23.298;2022-08-19T04:44:48;95030.97;;;21.26;59.71
6096;BME280;25081;42.698;23.298;2022-08-19T04:46:59;95037.07;;;21.56;59.21
6096;BME280;25081;42.698;23.298;2022-08-19T04:49:10;95038.92;;;21.95;58.36
6096;BME280;25081;42.698;23.298;2022-08-19T04:51:21;95031.34;;;22.30;57.21
6096;BME280;25081;42.698;23.298;2022-08-19T04:53:32;95025.25;;;22.52;56.62
6096;BME280;25081;42.698;23.298;2022-08-19T04:55:42;95036.19;;;22.77;56.07
6096;BME280;25081;42.698;23.298;2022-08-19T04:57:53;95033.16;;;22.65;56.14
6096;BME280;25081;42.698;23.298;2022-08-19T05:00:05;95030.43;;;22.51;57.00
6096;BME280;25081;42.698;23.298;2022-08-19T05:02:16;95036.05;;;22.71;56.50
6096;BME280;25081;42.698;23.298;2022-08-19T05:04:26;95036.87;;;22.55;56.81
6096;BME280;25081;42.698;23.298;2022-08-19T05:06:38;95039.14;;;22.34;57.87
6096;BME280;25081;42.698;23.298;2022-08-19T05:08:48;95046.98;;;22.19;57.76
6096;BME280;25081;42.698;23.298;2022-08-19T05:10:59;95036.92;;;22.52;56.75
6096;BME280;25081;42.698;23.298;2022-08-19T05:13:09;95033.50;;;23.70;53.48
6096;BME280;25081;42.698;23.298;2022-08-19T05:15:20;95032.92;;;24.63;50.38
6096;BME280;25081;42.698;23.298;2022-08-19T05:17:31;95030.09;;;25.36;48.44
6096;BME280;25081;42.698;23.298;2022-08-19T05:19:42;95029.46;;;25.77;47.87
6096;BME280;25081;42.698;23.298;2022-08-19T05:22:10;95034.68;;;26.86;44.71
6096;BME280;25081;42.698;23.298;2022-08-19T05:24:38;95027.50;;;27.99;42.04
6096;BME280;25081;42.698;23.298;2022-08-19T05:26:50;95034.59;;;28.87;39.84
6096;BME280;25081;42.698;23.298;2022-08-19T05:29:00;95029.84;;;29.21;38.41
6096;BME280;25081;42.698;23.298;2022-08-19T05:31:10;95039.00;;;28.73;39.70
6096;BME280;25081;42.698;23.298;2022-08-19T05:33:21;95031.78;;;28.30;40.31
6096;BME280;25081;42.698;23.298;2022-08-19T05:35:32;95030.60;;;28.51;40.55
6096;BME280;25081;42.698;23.298;2022-08-19T05:37:42;95027.45;;;29.25;38.53
6096;BME280;25081;42.698;23.298;2022-08-19T05:39:54;95028.02;;;29.61;37.44
6096;BME280;25081;42.698;23.298;2022-08-19T05:42:06;95029.95;;;29.43;37.91
6096;BME280;25081;42.698;23.298;2022-08-19T05:44:16;95029.85;;;29.76;37.67
6096;BME280;25081;42.698;23.298;2022-08-19T05:46:27;95025.12;;;29.95;36.85
6096;BME280;25081;42.698;23.298;2022-08-19T05:48:37;95025.50;;;29.38;38.07
6096;BME280;25081;42.698;23.298;2022-08-19T05:50:48;95032.60;;;28.69;39.81
6096;BME280;25081;42.698;23.298;2022-08-19T05:53:00;95034.46;;;28.23;40.06
6096;BME280;25081;42.698;23.298;2022-08-19T05:55:11;95035.35;;;29.15;38.73
6096;BME280;25081;42.698;23.298;2022-08-19T05:57:22;95030.84;;;30.42;36.14
6096;BME280;25081;42.698;23.298;2022-08-19T05:59:32;95029.02;;;30.90;35.41
6096;BME280;25081;42.698;23.298;2022-08-19T06:01:44;95026.80;;;31.84;33.10
6096;BME280;25081;42.698;23.298;2022-08-19T06:03:54;95031.82;;;30.77;34.68
6096;BME280;25081;42.698;23.298;2022-08-19T06:06:06;95037.70;;;31.71;33.27
6096;BME280;25081;42.698;23.298;2022-08-19T06:08:15;95030.52;;;31.92;32.75
6096;BME280;25081;42.698;23.298;2022-08-19T06:10:26;95031.92;;;32.11;32.70
6096;BME280;25081;42.698;23.298;2022-08-19T06:12:37;95038.18;;;31.10;34.52
6096;BME280;25081;42.698;23.298;2022-08-19T06:14:47;95023.41;;;32.45;31.92
6096;BME280;25081;42.698;23.298;2022-08-19T06:16:58;95028.71;;;32.54;32.11
6096;BME280;25081;42.698;23.298;2022-08-19T06:19:12;95027.85;;;33.47;30.22
6096;BME280;25081;42.698;23.298;2022-08-19T06:21:21;95037.55;;;32.92;30.99
6096;BME280;25081;42.698;23.298;2022-08-19T06:23:31;95039.13;;;33.02;30.63
6096;BME280;25081;42.698;23.298;2022-08-19T06:25:42;95039.98;;;32.35;31.78
6096;BME280;25081;42.698;23.298;2022-08-19T06:27:53;95029.38;;;32.02;31.91
6096;BME280;25081;42.698;23.298;2022-08-19T06:30:04;95036.75;;;32.14;32.27
6096;BME280;25081;42.698;23.298;2022-08-19T06:32:15;95030.39;;;32.04;32.32
6096;BME280;25081;42.698;23.298;2022-08-19T06:34:26;95038.14;;;32.91;30.97
6096;BME280;25081;42.698;23.298;2022-08-19T06:36:37;95036.39;;;32.73;31.47
6096;BME280;25081;42.698;23.298;2022-08-19T06:38:47;95039.00;;;32.76;31.51
6096;BME280;25081;42.698;23.298;2022-08-19T06:41:02;95031.87;;;33.17;30.17
6096;BME280;25081;42.698;23.298;2022-08-19T06:43:13;95035.20;;;32.07;31.98
6096;BME280;25081;42.698;23.298;2022-08-19T06:45:24;95032.58;;;31.95;32.46
6096;BME280;25081;42.698;23.298;2022-08-19T06:47:35;95038.80;;;32.65;31.28
6096;BME280;25081;42.698;23.298;2022-08-19T06:49:46;95035.97;;;33.14;30.08
6096;BME280;25081;42.698;23.298;2022-08-19T06:51:56;95036.27;;;34.21;28.65
6096;BME280;25081;42.698;23.298;2022-08-19T06:54:07;95033.59;;;34.91;27.70
6096;BME280;25081;42.698;23.298;2022-08-19T06:56:19;95032.28;;;35.39;26.79
6096;BME280;25081;42.698;23.298;2022-08-19T06:58:29;95034.07;;;35.62;26.08
6096;BME280;25081;42.698;23.298;2022-08-19T07:00:42;95030.30;;;35.88;26.23
6096;BME280;25081;42.698;23.298;2022-08-19T07:02:53;95029.27;;;36.13;26.28
6096;BME280;25081;42.698;23.298;2022-08-19T07:05:05;95036.34;;;35.32;27.39
6096;BME280;25081;42.698;23.298;2022-08-19T07:07:15;95038.33;;;33.97;28.53
6096;BME280;25081;42.698;23.298;2022-08-19T07:09:26;95038.05;;;33.93;29.40
6096;BME280;25081;42.698;23.298;2022-08-19T07:11:37;95047.06;;;34.16;28.72
6096;BME280;25081;42.698;23.298;2022-08-19T07:13:47;95039.13;;;33.02;30.08
6096;BME280;25081;42.698;23.298;2022-08-19T07:15:58;95037.03;;;34.04;28.83
6096;BME280;25081;42.698;23.298;2022-08-19T07:18:09;95041.75;;;35.14;27.37
6096;BME280;25081;42.698;23.298;2022-08-19T07:20:19;95040.80;;;35.88;26.46
6096;BME280;25081;42.698;23.298;2022-08-19T07:22:30;95033.55;;;36.80;24.87
6096;BME280;25081;42.698;23.298;2022-08-19T07:24:41;95039.20;;;34.05;28.53
6096;BME280;25081;42.698;23.298;2022-08-19T07:26:52;95033.75;;;34.72;27.91
6096;BME280;25081;42.698;23.298;2022-08-19T07:29:02;95043.84;;;33.25;30.06
6096;BME280;25081;42.698;23.298;2022-08-19T07:31:14;95038.89;;;33.11;29.90
6096;BME280;25081;42.698;23.298;2022-08-19T07:33:24;95036.06;;;32.11;31.43
6096;BME280;25081;42.698;23.298;2022-08-19T07:35:34;95041.54;;;33.63;29.78
6096;BME280;25081;42.698;23.298;2022-08-19T07:37:45;95033.45;;;34.81;27.88
6096;BME280;25081;42.698;23.298;2022-08-19T07:39:56;95029.34;;;34.21;28.46
6096;BME280;25081;42.698;23.298;2022-08-19T07:42:07;95029.53;;;33.78;29.04
6096;BME280;25081;42.698;23.298;2022-08-19T07:44:18;95031.42;;;34.57;27.95
6096;BME280;25081;42.698;23.298;2022-08-19T07:46:28;94909.03;;;34.11;27.96
6096;BME280;25081;42.698;23.298;2022-08-19T07:48:39;95029.13;;;35.41;27.38
6096;BME280;25081;42.698;23.298;2022-08-19T07:50:49;95028.13;;;35.63;26.38
6096;BME280;25081;42.698;23.298;2022-08-19T07:53:00;95028.16;;;36.74;25.31
6096;BME280;25081;42.698;23.298;2022-08-19T07:55:11;95031.11;;;37.31;24.18
6096;BME280;25081;42.698;23.298;2022-08-19T07:57:21;95029.11;;;37.64;24.21
6096;BME280;25081;42.698;23.298;2022-08-19T07:59:32;95023.17;;;37.30;24.07
6096;BME280;25081;42.698;23.298;2022-08-19T08:01:43;95029.27;;;35.59;26.07
6096;BME280;25081;42.698;23.298;2022-08-19T08:03:54;95034.98;;;34.28;28.61
6096;BME280;25081;42.698;23.298;2022-08-19T08:06:22;95032.57;;;34.73;27.75
6096;BME280;25081;42.698;23.298;2022-08-19T08:08:50;95030.33;;;34.49;28.85
6096;BME280;25081;42.698;23.298;2022-08-19T08:11:19;95033.34;;;35.04;27.08
6096;BME280;25081;42.698;23.298;2022-08-19T08:13:29;95027.09;;;36.17;25.61
6096;BME280;25081;42.698;23.298;2022-08-19T08:15:40;95024.57;;;36.28;25.37
6096;BME280;25081;42.698;23.298;2022-08-19T08:17:51;95023.77;;;36.21;25.50
6096;BME280;25081;42.698;23.298;2022-08-19T08:20:02;95022.96;;;37.43;24.06
6096;BME280;25081;42.698;23.298;2022-08-19T08:22:14;95013.16;;;38.25;22.49
6096;BME280;25081;42.698;23.298;2022-08-19T08:24:24;95010.50;;;39.24;21.14
6096;BME280;25081;42.698;23.298;2022-08-19T08:26:34;95008.28;;;39.27;21.71
6096;BME280;25081;42.698;23.298;2022-08-19T08:28:45;95012.16;;;38.81;22.37
6096;BME280;25081;42.698;23.298;2022-08-19T08:30:55;95006.52;;;38.41;22.52
6096;BME280;25081;42.698;23.298;2022-08-19T08:33:06;95005.53;;;36.68;24.53
6096;BME280;25081;42.698;23.298;2022-08-19T08:35:21;95004.89;;;37.78;23.04
6096;BME280;25081;42.698;23.298;2022-08-19T08:37:27;95000.39;;;38.31;22.42
6096;BME280;25081;42.698;23.298;2022-08-19T08:39:38;95002.88;;;37.93;23.28
6096;BME280;25081;42.698;23.298;2022-08-19T08:41:51;95000.90;;;37.87;23.30
6096;BME280;25081;42.698;23.298;2022-08-19T08:44:02;94999.06;;;38.60;21.71
6096;BME280;25081;42.698;23.298;2022-08-19T08:46:13;95004.63;;;39.04;21.08
6096;BME280;25081;42.698;23.298;2022-08-19T08:48:28;94998.66;;;38.69;21.67
6096;BME280;25081;42.698;23.298;2022-08-19T08:50:37;94997.70;;;37.06;23.64
6096;BME280;25081;42.698;23.298;2022-08-19T08:52:47;94988.42;;;36.18;24.46
6096;BME280;25081;42.698;23.298;2022-08-19T08:54:59;94994.55;;;36.55;24.78
6096;BME280;25081;42.698;23.298;2022-08-19T08:57:11;94989.42;;;35.84;25.52
6096;BME280;25081;42.698;23.298;2022-08-19T08:59:23;94995.11;;;35.47;25.53
6096;BME280;25081;42.698;23.298;2022-08-19T09:01:32;94989.91;;;35.94;24.62
6096;BME280;25081;42.698;23.298;2022-08-19T09:03:43;94986.34;;;37.05;23.75
6096;BME280;25081;42.698;23.298;2022-08-19T09:06:00;94982.03;;;37.50;22.14
6096;BME280;25081;42.698;23.298;2022-08-19T09:08:12;94989.17;;;35.49;23.57
6096;BME280;25081;42.698;23.298;2022-08-19T09:10:22;94981.52;;;35.11;24.84
6096;BME280;25081;42.698;23.298;2022-08-19T09:12:35;94979.41;;;37.02;22.85
6096;BME280;25081;42.698;23.298;2022-08-19T09:14:47;94968.48;;;37.88;21.68
6096;BME280;25081;42.698;23.298;2022-08-19T09:16:57;94975.84;;;38.88;21.25
6096;BME280;25081;42.698;23.298;2022-08-19T09:19:08;94969.67;;;39.44;20.38
6096;BME280;25081;42.698;23.298;2022-08-19T09:21:18;94966.95;;;36.42;22.95
6096;BME280;25081;42.698;23.298;2022-08-19T09:23:29;94964.98;;;36.53;22.61
6096;BME280;25081;42.698;23.298;2022-08-19T09:25:39;94963.94;;;35.96;22.71
6096;BME280;25081;42.698;23.298;2022-08-19T09:27:50;94966.45;;;35.56;24.26
6096;BME280;25081;42.698;23.298;2022-08-19T09:30:00;94971.21;;;34.71;24.34
6096;BME280;25081;42.698;23.298;2022-08-19T09:32:11;94966.95;;;34.81;23.02
6096;BME280;25081;42.698;23.298;2022-08-19T09:34:22;94957.67;;;36.58;21.19
6096;BME280;25081;42.698;23.298;2022-08-19T09:36:32;94957.28;;;38.13;19.41
6096;BME280;25081;42.698;23.298;2022-08-19T09:38:43;94955.41;;;39.61;17.82
6096;BME280;25081;42.698;23.298;2022-08-19T09:40:54;94951.98;;;40.56;16.58
6096;BME280;25081;42.698;23.298;2022-08-19T09:43:04;94945.18;;;40.99;16.72
6096;BME280;25081;42.698;23.298;2022-08-19T09:45:16;94945.63;;;41.09;16.79
6096;BME280;25081;42.698;23.298;2022-08-19T09:47:26;94941.53;;;40.60;16.76
6096;BME280;25081;42.698;23.298;2022-08-19T09:49:37;94947.87;;;38.73;18.21
6096;BME280;25081;42.698;23.298;2022-08-19T09:51:50;94955.34;;;38.87;18.50
6096;BME280;25081;42.698;23.298;2022-08-19T09:54:01;94948.84;;;39.11;17.81
6096;BME280;25081;42.698;23.298;2022-08-19T09:56:12;94941.67;;;37.58;19.31
6096;BME280;25081;42.698;23.298;2022-08-19T09:58:23;94937.38;;;38.15;19.37
6096;BME280;25081;42.698;23.298;2022-08-19T10:00:34;94937.56;;;39.48;17.60
6096;BME280;25081;42.698;23.298;2022-08-19T10:02:45;94940.37;;;38.92;18.89
6096;BME280;25081;42.698;23.298;2022-08-19T10:04:56;94927.52;;;38.40;18.31
6096;BME280;25081;42.698;23.298;2022-08-19T10:07:24;94932.39;;;38.94;18.08
6096;BME280;25081;42.698;23.298;2022-08-19T10:09:35;94924.90;;;38.84;17.59
6096;BME280;25081;42.698;23.298;2022-08-19T10:11:46;94924.43;;;38.16;18.67
6096;BME280;25081;42.698;23.298;2022-08-19T10:13:57;94918.20;;;38.31;19.12
6096;BME280;25081;42.698;23.298;2022-08-19T10:16:14;94919.02;;;38.68;19.01
6096;BME280;25081;42.698;23.298;2022-08-19T10:18:19;94918.02;;;39.70;18.08
6096;BME280;25081;42.698;23.298;2022-08-19T10:20:29;94916.73;;;39.97;17.53
6096;BME280;25081;42.698;23.298;2022-08-19T10:22:40;94912.13;;;40.18;17.07
6096;BME280;25081;42.698;23.298;2022-08-19T10:24:51;94914.33;;;39.62;18.35
6096;BME280;25081;42.698;23.298;2022-08-19T10:27:02;94915.02;;;39.47;17.78
6096;BME280;25081;42.698;23.298;2022-08-19T10:29:13;94915.16;;;39.59;17.78
6096;BME280;25081;42.698;23.298;2022-08-19T10:31:25;94908.14;;;39.40;18.37
6096;BME280;25081;42.698;23.298;2022-08-19T10:33:35;94903.41;;;39.74;18.24
6096;BME280;25081;42.698;23.298;2022-08-19T10:35:45;94906.55;;;39.39;18.52
6096;BME280;25081;42.698;23.298;2022-08-19T10:37:56;94901.42;;;39.11;18.73
6096;BME280;25081;42.698;23.298;2022-08-19T10:40:09;94906.16;;;39.14;18.85
6096;BME280;25081;42.698;23.298;2022-08-19T10:42:20;94900.51;;;39.44;17.80
6096;BME280;25081;42.698;23.298;2022-08-19T10:44:31;94901.02;;;39.92;17.94
6096;BME280;25081;42.698;23.298;2022-08-19T10:46:42;94900.34;;;39.20;17.89
6096;BME280;25081;42.698;23.298;2022-08-19T10:48:53;94898.96;;;39.17;18.07
6096;BME280;25081;42.698;23.298;2022-08-19T10:51:03;94902.91;;;37.76;20.07
6096;BME280;25081;42.698;23.298;2022-08-19T10:53:39;94891.42;;;37.03;20.61
6096;BME280;25081;42.698;23.298;2022-08-19T10:55:49;94891.82;;;36.94;20.29
6096;BME280;25081;42.698;23.298;2022-08-19T10:58:18;94887.25;;;36.96;20.15
6096;BME280;25081;42.698;23.298;2022-08-19T11:00:29;94884.28;;;37.02;20.54
6096;BME280;25081;42.698;23.298;2022-08-19T11:02:40;94886.25;;;37.05;20.80
6096;BME280;25081;42.698;23.298;2022-08-19T11:04:51;94882.84;;;37.59;19.96
6096;BME280;25081;42.698;23.298;2022-08-19T11:07:02;94888.00;;;38.26;19.37
6096;BME280;25081;42.698;23.298;2022-08-19T11:09:12;94887.15;;;38.36;19.19
6096;BME280;25081;42.698;23.298;2022-08-19T11:11:23;94881.95;;;38.42;18.96
6096;BME280;25081;42.698;23.298;2022-08-19T11:13:34;94883.69;;;38.07;19.21
6096;BME280;25081;42.698;23.298;2022-08-19T11:15:44;94879.33;;;36.98;20.39
6096;BME280;25081;42.698;23.298;2022-08-19T11:17:56;94875.70;;;36.51;21.10
6096;BME280;25081;42.698;23.298;2022-08-19T11:20:08;94866.40;;;37.32;20.31
6096;BME280;25081;42.698;23.298;2022-08-19T11:22:19;94870.90;;;37.66;20.01
6096;BME280;25081;42.698;23.298;2022-08-19T11:24:29;94874.55;;;37.16;20.46
6096;BME280;25081;42.698;23.298;2022-08-19T11:26:40;94865.61;;;37.31;20.50
6096;BME280;25081;42.698;23.298;2022-08-19T11:28:51;94865.61;;;37.10;20.92
6096;BME280;25081;42.698;23.298;2022-08-19T11:31:02;94870.08;;;36.30;20.96
6096;BME280;25081;42.698;23.298;2022-08-19T11:33:13;94864.67;;;36.17;21.42
6096;BME280;25081;42.698;23.298;2022-08-19T11:35:23;94861.61;;;36.50;21.42